Jerseyville, IL (62052)

9:45 PM CST on February 09, 2016 (GMT -0600)
Southland Estates | | Change Station
CLOSE
Current Station
Personal Weather Station
Location: Jerseyville, IL
Elevation: 669 ft
Nearby Weather Stations

Elev 669 ft 39.07 °N, 90.29 °W | Updated 18 seconds ago

Clear
Clear
19.0 °F
Feels Like 5 °F
N
15.0
Wind Variable Wind from NW
Gusts 19.9 mph

Today
High -- | Low -- °F
--% Chance of Precip.
Yesterday
High -- | Low -- °F
Precip. -- in
Pressure 30.14 in
Visibility 10.0 miles
Clouds Clear
Windchill 5 °F
Dew Point 3 °F
Humidity 50%
Rainfall 0.00 in
Snow Depth Not available.
7:00 AM 5:31 PM
Waxing Crescent, 3% visible
METAR KSET 100254Z AUTO 31015G22KT 10SM CLR M06/M12 A3012 RMK AO2 SLP204 T10611122 51012 $
Pressure 30.14 in
Visibility 10.0 miles
Clouds Clear
Windchill 5 °F
Dew Point 3 °F
Humidity 50%
Rainfall 0.00 in
Snow Depth Not available.
7:00 AM 5:31 PM
Waxing Crescent, 3% visible
METAR KSET 100254Z AUTO 31015G22KT 10SM CLR M06/M12 A3012 RMK AO2 SLP204 T10611122 51012 $

10-Day Weather Forecast

Almanac

Astronomy

Feb. 09, 2016 Rise Set
Actual Time
Civil Twilight
Nautical Twilight
Astronomical Twilight
Moon
Length of Visible Light
Length of Day
Tomorrow will be .
, % of the Moon is Illuminated

Today's Extremes

State Highs State Lows

Community

WunderPhotos

Upload Photos

1,891,792 photos uploaded!

WunderBlog® & News

Nearby

Air Quality

  Air Quality AQ Index Pollutant
Not available.

Snow Depth

Station Depth Elevation

Earthquake Activity

City Distance Mag. Time & Date
Minimum magnitude displayed is 2.5.

Coastal Water Temperatures

Place Temperature

Stations

Nearby Weather Stations

Station Location Temp. Windchill Dew Point Humidity Wind Precip. Elev Updated Type
                   

Watches & Warnings

There are currently no watches in effect.